sensor_id;sensor_type;location;lat;lon;timestamp;temperature;humidity
74617;DHT22;63123;50.906;4.198;2022-09-01T00:00:49;22.30;59.60
74617;DHT22;63123;50.906;4.198;2022-09-01T00:03:17;22.30;59.60
74617;DHT22;63123;50.906;4.198;2022-09-01T00:05:43;22.30;59.60
74617;DHT22;63123;50.906;4.198;2022-09-01T00:08:11;22.30;59.60
74617;DHT22;63123;50.906;4.198;2022-09-01T00:10:37;22.30;59.60
74617;DHT22;63123;50.906;4.198;2022-09-01T00:13:04;22.30;59.60
74617;DHT22;63123;50.906;4.198;2022-09-01T00:15:32;22.30;59.60
74617;DHT22;63123;50.906;4.198;2022-09-01T00:17:58;22.30;59.70
74617;DHT22;63123;50.906;4.198;2022-09-01T00:20:23;22.30;59.70
74617;DHT22;63123;50.906;4.198;2022-09-01T00:22:49;22.30;59.60
74617;DHT22;63123;50.906;4.198;2022-09-01T00:25:16;22.30;59.70
74617;DHT22;63123;50.906;4.198;2022-09-01T00:27:43;22.30;59.60
74617;DHT22;63123;50.906;4.198;2022-09-01T00:30:09;22.30;59.60
74617;DHT22;63123;50.906;4.198;2022-09-01T00:32:35;22.30;59.60
74617;DHT22;63123;50.906;4.198;2022-09-01T00:35:01;22.30;59.70
74617;DHT22;63123;50.906;4.198;2022-09-01T00:37:26;22.30;59.50
74617;DHT22;63123;50.906;4.198;2022-09-01T00:39:52;22.30;59.60
74617;DHT22;63123;50.906;4.198;2022-09-01T00:42:18;22.30;59.50
74617;DHT22;63123;50.906;4.198;2022-09-01T00:44:43;22.30;59.60
74617;DHT22;63123;50.906;4.198;2022-09-01T00:47:09;22.30;59.60
74617;DHT22;63123;50.906;4.198;2022-09-01T00:49:40;22.30;59.50
74617;DHT22;63123;50.906;4.198;2022-09-01T00:52:20;22.30;59.50
74617;DHT22;63123;50.906;4.198;2022-09-01T00:54:52;22.30;59.60
74617;DHT22;63123;50.906;4.198;2022-09-01T00:57:19;22.30;59.60
74617;DHT22;63123;50.906;4.198;2022-09-01T01:00:09;22.20;59.50
74617;DHT22;63123;50.906;4.198;2022-09-01T01:02:37;22.30;59.60
74617;DHT22;63123;50.906;4.198;2022-09-01T01:05:04;22.30;59.50
74617;DHT22;63123;50.906;4.198;2022-09-01T01:07:30;22.30;59.50
74617;DHT22;63123;50.906;4.198;2022-09-01T01:09:59;22.30;60.00
74617;DHT22;63123;50.906;4.198;2022-09-01T01:12:25;22.30;59.50
74617;DHT22;63123;50.906;4.198;2022-09-01T01:14:54;22.30;59.50
74617;DHT22;63123;50.906;4.198;2022-09-01T01:17:22;22.30;59.50
74617;DHT22;63123;50.906;4.198;2022-09-01T01:19:53;22.20;59.40
74617;DHT22;63123;50.906;4.198;2022-09-01T01:25:43;22.30;59.50
74617;DHT22;63123;50.906;4.198;2022-09-01T01:28:16;22.20;59.40
74617;DHT22;63123;50.906;4.198;2022-09-01T01:30:48;22.20;59.50
74617;DHT22;63123;50.906;4.198;2022-09-01T01:33:23;22.20;59.40
74617;DHT22;63123;50.906;4.198;2022-09-01T01:35:50;22.20;59.30
74617;DHT22;63123;50.906;4.198;2022-09-01T01:38:17;22.20;59.40
74617;DHT22;63123;50.906;4.198;2022-09-01T01:40:45;22.30;59.50
74617;DHT22;63123;50.906;4.198;2022-09-01T01:43:11;22.30;59.50
74617;DHT22;63123;50.906;4.198;2022-09-01T01:45:41;22.20;59.40
74617;DHT22;63123;50.906;4.198;2022-09-01T01:48:06;22.20;59.40
74617;DHT22;63123;50.906;4.198;2022-09-01T01:50:34;22.20;59.30
74617;DHT22;63123;50.906;4.198;2022-09-01T01:53:04;22.20;59.30
74617;DHT22;63123;50.906;4.198;2022-09-01T01:55:30;22.20;59.30
74617;DHT22;63123;50.906;4.198;2022-09-01T01:57:57;22.30;59.30
74617;DHT22;63123;50.906;4.198;2022-09-01T02:00:27;22.20;59.20
74617;DHT22;63123;50.906;4.198;2022-09-01T02:02:53;22.30;59.30
74617;DHT22;63123;50.906;4.198;2022-09-01T02:05:28;22.20;59.30
74617;DHT22;63123;50.906;4.198;2022-09-01T02:07:57;22.20;59.40
74617;DHT22;63123;50.906;4.198;2022-09-01T02:10:29;22.20;59.20
74617;DHT22;63123;50.906;4.198;2022-09-01T02:12:57;22.20;59.40
74617;DHT22;63123;50.906;4.198;2022-09-01T02:15:41;22.20;59.20
74617;DHT22;63123;50.906;4.198;2022-09-01T02:18:15;22.20;59.20
74617;DHT22;63123;50.906;4.198;2022-09-01T02:20:44;22.20;59.30
74617;DHT22;63123;50.906;4.198;2022-09-01T02:23:12;22.20;59.00
74617;DHT22;63123;50.906;4.198;2022-09-01T02:25:42;22.20;59.40
74617;DHT22;63123;50.906;4.198;2022-09-01T02:28:14;22.20;59.20
74617;DHT22;63123;50.906;4.198;2022-09-01T02:30:45;22.20;59.00
74617;DHT22;63123;50.906;4.198;2022-09-01T02:33:15;22.20;59.20
74617;DHT22;63123;50.906;4.198;2022-09-01T02:35:48;22.20;59.10
74617;DHT22;63123;50.906;4.198;2022-09-01T02:38:15;22.20;59.10
74617;DHT22;63123;50.906;4.198;2022-09-01T02:40:43;22.20;58.80
74617;DHT22;63123;50.906;4.198;2022-09-01T02:43:10;22.20;59.10
74617;DHT22;63123;50.906;4.198;2022-09-01T02:45:37;22.20;59.00
74617;DHT22;63123;50.906;4.198;2022-09-01T02:48:04;22.20;58.90
74617;DHT22;63123;50.906;4.198;2022-09-01T02:50:35;22.20;59.10
74617;DHT22;63123;50.906;4.198;2022-09-01T02:53:01;22.20;59.20
74617;DHT22;63123;50.906;4.198;2022-09-01T02:55:27;22.20;59.10
74617;DHT22;63123;50.906;4.198;2022-09-01T02:57:52;22.20;59.60
74617;DHT22;63123;50.906;4.198;2022-09-01T03:00:23;22.20;59.10
74617;DHT22;63123;50.906;4.198;2022-09-01T03:03:02;22.20;59.10
74617;DHT22;63123;50.906;4.198;2022-09-01T03:05:29;22.20;59.60
74617;DHT22;63123;50.906;4.198;2022-09-01T03:08:00;22.20;58.90
74617;DHT22;63123;50.906;4.198;2022-09-01T03:10:29;22.20;58.80
74617;DHT22;63123;50.906;4.198;2022-09-01T03:13:09;22.20;59.00
74617;DHT22;63123;50.906;4.198;2022-09-01T03:15:36;22.20;58.90
74617;DHT22;63123;50.906;4.198;2022-09-01T03:18:03;22.20;58.90
74617;DHT22;63123;50.906;4.198;2022-09-01T03:20:31;22.20;58.90
74617;DHT22;63123;50.906;4.198;2022-09-01T03:23:06;22.20;58.80
74617;DHT22;63123;50.906;4.198;2022-09-01T03:25:33;22.20;58.80
74617;DHT22;63123;50.906;4.198;2022-09-01T03:27:59;22.20;59.00
74617;DHT22;63123;50.906;4.198;2022-09-01T03:30:30;22.20;58.80
74617;DHT22;63123;50.906;4.198;2022-09-01T03:32:57;22.20;59.00
74617;DHT22;63123;50.906;4.198;2022-09-01T03:35:23;22.20;58.90
74617;DHT22;63123;50.906;4.198;2022-09-01T03:37:50;22.20;58.60
74617;DHT22;63123;50.906;4.198;2022-09-01T03:40:17;22.20;58.70
74617;DHT22;63123;50.906;4.198;2022-09-01T03:42:43;22.20;58.90
74617;DHT22;63123;50.906;4.198;2022-09-01T03:45:10;22.20;58.80
74617;DHT22;63123;50.906;4.198;2022-09-01T03:47:41;22.20;58.70
74617;DHT22;63123;50.906;4.198;2022-09-01T03:50:10;22.20;58.70
74617;DHT22;63123;50.906;4.198;2022-09-01T03:52:53;22.20;58.60
74617;DHT22;63123;50.906;4.198;2022-09-01T03:55:25;22.20;58.70
74617;DHT22;63123;50.906;4.198;2022-09-01T03:57:53;22.20;58.70
74617;DHT22;63123;50.906;4.198;2022-09-01T04:00:21;22.20;58.70
74617;DHT22;63123;50.906;4.198;2022-09-01T04:02:53;22.20;58.40
74617;DHT22;63123;50.906;4.198;2022-09-01T04:05:23;22.20;58.60
74617;DHT22;63123;50.906;4.198;2022-09-01T04:07:56;22.20;58.70
74617;DHT22;63123;50.906;4.198;2022-09-01T04:10:22;22.20;58.60
74617;DHT22;63123;50.906;4.198;2022-09-01T04:12:48;22.20;58.60
74617;DHT22;63123;50.906;4.198;2022-09-01T04:15:15;22.20;58.50
74617;DHT22;63123;50.906;4.198;2022-09-01T04:17:45;22.20;58.40
74617;DHT22;63123;50.906;4.198;2022-09-01T04:20:29;22.20;58.50
74617;DHT22;63123;50.906;4.198;2022-09-01T04:23:07;22.20;58.70
74617;DHT22;63123;50.906;4.198;2022-09-01T04:25:38;22.20;58.40
74617;DHT22;63123;50.906;4.198;2022-09-01T04:28:04;22.20;58.40
74617;DHT22;63123;50.906;4.198;2022-09-01T04:30:42;22.20;58.70
74617;DHT22;63123;50.906;4.198;2022-09-01T04:33:08;22.20;58.60
74617;DHT22;63123;50.906;4.198;2022-09-01T04:35:38;22.20;58.10
74617;DHT22;63123;50.906;4.198;2022-09-01T04:38:04;22.20;58.20
74617;DHT22;63123;50.906;4.198;2022-09-01T04:40:37;22.20;58.20
74617;DHT22;63123;50.906;4.198;2022-09-01T04:43:04;22.20;57.90
74617;DHT22;63123;50.906;4.198;2022-09-01T04:45:30;22.20;57.90
74617;DHT22;63123;50.906;4.198;2022-09-01T04:47:56;22.20;57.90
74617;DHT22;63123;50.906;4.198;2022-09-01T04:50:24;22.20;58.10
74617;DHT22;63123;50.906;4.198;2022-09-01T04:52:54;22.20;58.00
74617;DHT22;63123;50.906;4.198;2022-09-01T04:55:20;22.20;58.30
74617;DHT22;63123;50.906;4.198;2022-09-01T04:57:48;22.20;58.00
74617;DHT22;63123;50.906;4.198;2022-09-01T05:00:19;22.20;57.70
74617;DHT22;63123;50.906;4.198;2022-09-01T05:02:55;22.20;58.00
74617;DHT22;63123;50.906;4.198;2022-09-01T05:05:27;22.20;57.90
74617;DHT22;63123;50.906;4.198;2022-09-01T05:07:53;22.20;58.10
74617;DHT22;63123;50.906;4.198;2022-09-01T05:10:20;22.20;57.70
74617;DHT22;63123;50.906;4.198;2022-09-01T05:12:50;22.20;57.50
74617;DHT22;63123;50.906;4.198;2022-09-01T05:15:16;22.20;57.90
74617;DHT22;63123;50.906;4.198;2022-09-01T05:17:42;22.20;57.90
74617;DHT22;63123;50.906;4.198;2022-09-01T05:20:09;22.20;58.00
74617;DHT22;63123;50.906;4.198;2022-09-01T05:22:36;22.20;57.90
74617;DHT22;63123;50.906;4.198;2022-09-01T05:25:06;22.20;57.80
74617;DHT22;63123;50.906;4.198;2022-09-01T05:27:43;22.20;58.10
74617;DHT22;63123;50.906;4.198;2022-09-01T05:30:15;22.20;57.80
74617;DHT22;63123;50.906;4.198;2022-09-01T05:32:42;22.20;57.80
74617;DHT22;63123;50.906;4.198;2022-09-01T05:35:08;22.20;57.90
74617;DHT22;63123;50.906;4.198;2022-09-01T05:37:37;22.20;57.80
74617;DHT22;63123;50.906;4.198;2022-09-01T05:40:07;22.20;58.00
74617;DHT22;63123;50.906;4.198;2022-09-01T05:42:34;22.20;58.10
74617;DHT22;63123;50.906;4.198;2022-09-01T05:45:05;22.20;57.90
74617;DHT22;63123;50.906;4.198;2022-09-01T05:47:31;22.20;57.80
74617;DHT22;63123;50.906;4.198;2022-09-01T05:50:01;22.20;57.80
74617;DHT22;63123;50.906;4.198;2022-09-01T05:52:30;22.20;57.80
74617;DHT22;63123;50.906;4.198;2022-09-01T05:54:58;22.20;57.70
74617;DHT22;63123;50.906;4.198;2022-09-01T05:57:25;22.20;58.00
74617;DHT22;63123;50.906;4.198;2022-09-01T05:59:51;22.20;57.70
74617;DHT22;63123;50.906;4.198;2022-09-01T06:02:21;22.20;57.70
74617;DHT22;63123;50.906;4.198;2022-09-01T06:04:47;22.20;57.70
74617;DHT22;63123;50.906;4.198;2022-09-01T06:07:14;22.20;57.70
74617;DHT22;63123;50.906;4.198;2022-09-01T06:09:42;22.20;58.00
74617;DHT22;63123;50.906;4.198;2022-09-01T06:12:08;22.20;57.80
74617;DHT22;63123;50.906;4.198;2022-09-01T06:14:42;22.20;57.60
74617;DHT22;63123;50.906;4.198;2022-09-01T06:17:08;22.20;57.70
74617;DHT22;63123;50.906;4.198;2022-09-01T06:19:36;22.20;57.60
74617;DHT22;63123;50.906;4.198;2022-09-01T06:22:03;22.20;57.50
74617;DHT22;63123;50.906;4.198;2022-09-01T06:24:29;22.20;58.00
74617;DHT22;63123;50.906;4.198;2022-09-01T06:26:54;22.20;57.60
74617;DHT22;63123;50.906;4.198;2022-09-01T06:29:20;22.20;57.90
74617;DHT22;63123;50.906;4.198;2022-09-01T06:31:45;22.20;57.80
74617;DHT22;63123;50.906;4.198;2022-09-01T06:34:16;22.20;57.70
74617;DHT22;63123;50.906;4.198;2022-09-01T06:36:43;22.20;57.80
74617;DHT22;63123;50.906;4.198;2022-09-01T06:39:09;22.20;57.90
74617;DHT22;63123;50.906;4.198;2022-09-01T06:41:47;22.20;56.70
74617;DHT22;63123;50.906;4.198;2022-09-01T06:44:14;22.20;56.70
74617;DHT22;63123;50.906;4.198;2022-09-01T06:46:40;22.20;56.50
74617;DHT22;63123;50.906;4.198;2022-09-01T06:49:05;22.20;56.40
74617;DHT22;63123;50.906;4.198;2022-09-01T06:51:36;22.20;56.20
74617;DHT22;63123;50.906;4.198;2022-09-01T06:54:01;22.20;56.30
74617;DHT22;63123;50.906;4.198;2022-09-01T06:56:29;22.20;56.10
74617;DHT22;63123;50.906;4.198;2022-09-01T06:58:59;22.20;56.20
74617;DHT22;63123;50.906;4.198;2022-09-01T07:01:28;22.20;56.20
74617;DHT22;63123;50.906;4.198;2022-09-01T07:03:54;22.20;56.20
74617;DHT22;63123;50.906;4.198;2022-09-01T07:06:24;22.30;55.90
74617;DHT22;63123;50.906;4.198;2022-09-01T07:09:00;22.20;56.10
74617;DHT22;63123;50.906;4.198;2022-09-01T07:11:31;22.20;56.20
74617;DHT22;63123;50.906;4.198;2022-09-01T07:14:00;22.20;56.20
74617;DHT22;63123;50.906;4.198;2022-09-01T07:16:27;22.30;56.10
74617;DHT22;63123;50.906;4.198;2022-09-01T07:18:56;22.20;56.00
74617;DHT22;63123;50.906;4.198;2022-09-01T07:21:24;22.30;56.10
74617;DHT22;63123;50.906;4.198;2022-09-01T07:23:50;22.30;56.10
74617;DHT22;63123;50.906;4.198;2022-09-01T07:26:17;22.30;55.90
74617;DHT22;63123;50.906;4.198;2022-09-01T07:28:48;22.30;55.90
74617;DHT22;63123;50.906;4.198;2022-09-01T07:31:28;22.30;56.00
74617;DHT22;63123;50.906;4.198;2022-09-01T07:33:57;22.30;55.90
74617;DHT22;63123;50.906;4.198;2022-09-01T07:36:23;22.30;56.10
74617;DHT22;63123;50.906;4.198;2022-09-01T07:38:49;22.30;56.10
74617;DHT22;63123;50.906;4.198;2022-09-01T07:41:23;22.30;55.90
74617;DHT22;63123;50.906;4.198;2022-09-01T07:43:50;22.30;56.60
74617;DHT22;63123;50.906;4.198;2022-09-01T07:46:19;22.30;56.10
74617;DHT22;63123;50.906;4.198;2022-09-01T07:48:45;22.30;56.10
74617;DHT22;63123;50.906;4.198;2022-09-01T07:51:14;22.30;56.20
74617;DHT22;63123;50.906;4.198;2022-09-01T07:53:44;22.30;56.70
74617;DHT22;63123;50.906;4.198;2022-09-01T07:56:11;22.30;56.10
74617;DHT22;63123;50.906;4.198;2022-09-01T07:58:38;22.30;56.10
74617;DHT22;63123;50.906;4.198;2022-09-01T08:01:08;22.30;56.10
74617;DHT22;63123;50.906;4.198;2022-09-01T08:03:36;22.30;56.00
74617;DHT22;63123;50.906;4.198;2022-09-01T08:06:07;22.30;56.00
74617;DHT22;63123;50.906;4.198;2022-09-01T08:08:34;22.30;56.00
74617;DHT22;63123;50.906;4.198;2022-09-01T08:11:00;22.30;56.10
74617;DHT22;63123;50.906;4.198;2022-09-01T08:13:26;22.30;56.30
74617;DHT22;63123;50.906;4.198;2022-09-01T08:15:52;22.30;56.10
74617;DHT22;63123;50.906;4.198;2022-09-01T08:18:18;22.30;56.60
74617;DHT22;63123;50.906;4.198;2022-09-01T08:20:44;22.30;56.10
74617;DHT22;63123;50.906;4.198;2022-09-01T08:23:15;22.30;56.10
74617;DHT22;63123;50.906;4.198;2022-09-01T08:25:43;22.30;55.70
74617;DHT22;63123;50.906;4.198;2022-09-01T08:28:10;22.30;56.10
74617;DHT22;63123;50.906;4.198;2022-09-01T08:30:40;22.30;56.30
74617;DHT22;63123;50.906;4.198;2022-09-01T08:33:07;22.40;56.20
74617;DHT22;63123;50.906;4.198;2022-09-01T08:35:38;22.40;56.20
74617;DHT22;63123;50.906;4.198;2022-09-01T08:38:03;22.40;56.20
74617;DHT22;63123;50.906;4.198;2022-09-01T08:40:29;22.30;56.20
74617;DHT22;63123;50.906;4.198;2022-09-01T08:45:47;22.40;56.30
74617;DHT22;63123;50.906;4.198;2022-09-01T08:48:18;22.40;56.30
74617;DHT22;63123;50.906;4.198;2022-09-01T08:50:48;22.40;56.40
74617;DHT22;63123;50.906;4.198;2022-09-01T08:53:23;22.40;56.30
74617;DHT22;63123;50.906;4.198;2022-09-01T08:55:56;22.40;56.20
74617;DHT22;63123;50.906;4.198;2022-09-01T08:58:22;22.40;56.30
74617;DHT22;63123;50.906;4.198;2022-09-01T09:00:58;22.40;56.30
74617;DHT22;63123;50.906;4.198;2022-09-01T09:09:08;22.40;56.30
74617;DHT22;63123;50.906;4.198;2022-09-01T09:14:56;22.40;56.50
74617;DHT22;63123;50.906;4.198;2022-09-01T09:17:31;22.40;56.40
74617;DHT22;63123;50.906;4.198;2022-09-01T09:19:59;22.40;56.50
74617;DHT22;63123;50.906;4.198;2022-09-01T09:22:26;22.40;56.40
74617;DHT22;63123;50.906;4.198;2022-09-01T09:24:57;22.40;56.50
74617;DHT22;63123;50.906;4.198;2022-09-01T09:27:38;22.40;56.30
74617;DHT22;63123;50.906;4.198;2022-09-01T09:30:08;22.50;56.50
74617;DHT22;63123;50.906;4.198;2022-09-01T09:32:50;22.40;56.40
74617;DHT22;63123;50.906;4.198;2022-09-01T09:35:30;22.50;56.40
74617;DHT22;63123;50.906;4.198;2022-09-01T09:38:19;22.50;56.40
74617;DHT22;63123;50.906;4.198;2022-09-01T09:43:35;22.50;56.40
74617;DHT22;63123;50.906;4.198;2022-09-01T09:49:17;22.50;56.60
74617;DHT22;63123;50.906;4.198;2022-09-01T09:51:47;22.50;56.50
74617;DHT22;63123;50.906;4.198;2022-09-01T09:54:26;22.50;56.50
74617;DHT22;63123;50.906;4.198;2022-09-01T09:59:37;22.50;56.60
74617;DHT22;63123;50.906;4.198;2022-09-01T10:02:21;22.50;57.20
74617;DHT22;63123;50.906;4.198;2022-09-01T10:04:48;22.50;56.60
74617;DHT22;63123;50.906;4.198;2022-09-01T10:07:40;22.50;56.30
74617;DHT22;63123;50.906;4.198;2022-09-01T10:12:51;22.50;56.40
74617;DHT22;63123;50.906;4.198;2022-09-01T10:15:18;22.50;56.50
74617;DHT22;63123;50.906;4.198;2022-09-01T10:17:46;22.50;56.60
74617;DHT22;63123;50.906;4.198;2022-09-01T10:20:15;22.50;56.80
74617;DHT22;63123;50.906;4.198;2022-09-01T10:22:42;22.50;56.90
74617;DHT22;63123;50.906;4.198;2022-09-01T10:25:13;22.50;56.90
74617;DHT22;63123;50.906;4.198;2022-09-01T10:27:42;22.50;56.70
74617;DHT22;63123;50.906;4.198;2022-09-01T10:30:13;22.50;56.60
74617;DHT22;63123;50.906;4.198;2022-09-01T10:35:31;22.50;56.70
74617;DHT22;63123;50.906;4.198;2022-09-01T10:38:02;22.50;57.20
74617;DHT22;63123;50.906;4.198;2022-09-01T10:40:40;22.50;56.50
74617;DHT22;63123;50.906;4.198;2022-09-01T10:48:49;22.60;56.60
74617;DHT22;63123;50.906;4.198;2022-09-01T10:53:41;22.60;56.60
74617;DHT22;63123;50.906;4.198;2022-09-01T11:01:14;22.60;55.80
74617;DHT22;63123;50.906;4.198;2022-09-01T11:03:52;22.60;55.70
74617;DHT22;63123;50.906;4.198;2022-09-01T11:09:38;22.60;55.70
74617;DHT22;63123;50.906;4.198;2022-09-01T11:12:23;22.60;55.60
74617;DHT22;63123;50.906;4.198;2022-09-01T11:15:02;22.50;55.30
74617;DHT22;63123;50.906;4.198;2022-09-01T11:17:38;22.60;55.70
74617;DHT22;63123;50.906;4.198;2022-09-01T11:23:03;22.50;55.60
74617;DHT22;63123;50.906;4.198;2022-09-01T11:30:55;22.60;56.00
74617;DHT22;63123;50.906;4.198;2022-09-01T11:36:06;22.60;55.50
74617;DHT22;63123;50.906;4.198;2022-09-01T11:38:48;22.50;55.20
74617;DHT22;63123;50.906;4.198;2022-09-01T11:41:27;22.60;55.70
74617;DHT22;63123;50.906;4.198;2022-09-01T11:43:57;22.60;55.60
74617;DHT22;63123;50.906;4.198;2022-09-01T11:46:32;22.60;55.20
74617;DHT22;63123;50.906;4.198;2022-09-01T11:49:04;22.60;55.60
74617;DHT22;63123;50.906;4.198;2022-09-01T11:51:43;22.60;55.90
74617;DHT22;63123;50.906;4.198;2022-09-01T11:54:10;22.60;55.70
74617;DHT22;63123;50.906;4.198;2022-09-01T11:56:36;22.60;55.70
74617;DHT22;63123;50.906;4.198;2022-09-01T11:59:02;22.60;55.60
74617;DHT22;63123;50.906;4.198;2022-09-01T12:01:36;22.60;55.60
74617;DHT22;63123;50.906;4.198;2022-09-01T12:04:21;22.50;55.70
74617;DHT22;63123;50.906;4.198;2022-09-01T12:06:57;22.60;55.10
74617;DHT22;63123;50.906;4.198;2022-09-01T12:09:35;22.60;55.50
74617;DHT22;63123;50.906;4.198;2022-09-01T12:12:03;22.60;55.60
74617;DHT22;63123;50.906;4.198;2022-09-01T12:14:29;22.60;55.60
74617;DHT22;63123;50.906;4.198;2022-09-01T12:16:58;22.60;55.30
74617;DHT22;63123;50.906;4.198;2022-09-01T12:19:27;22.60;55.60
74617;DHT22;63123;50.906;4.198;2022-09-01T12:22:14;22.60;55.40
74617;DHT22;63123;50.906;4.198;2022-09-01T12:24:45;22.60;54.70
74617;DHT22;63123;50.906;4.198;2022-09-01T12:27:12;22.60;55.10
74617;DHT22;63123;50.906;4.198;2022-09-01T12:29:39;22.60;55.00
74617;DHT22;63123;50.906;4.198;2022-09-01T12:32:05;22.60;55.30
74617;DHT22;63123;50.906;4.198;2022-09-01T12:34:38;22.60;55.70
74617;DHT22;63123;50.906;4.198;2022-09-01T12:37:25;22.60;55.10
74617;DHT22;63123;50.906;4.198;2022-09-01T12:39:56;22.60;55.20
74617;DHT22;63123;50.906;4.198;2022-09-01T12:42:31;22.60;55.10
74617;DHT22;63123;50.906;4.198;2022-09-01T12:45:02;22.60;55.10
74617;DHT22;63123;50.906;4.198;2022-09-01T12:49:59;22.60;55.40
74617;DHT22;63123;50.906;4.198;2022-09-01T12:52:26;22.60;55.20
74617;DHT22;63123;50.906;4.198;2022-09-01T12:57:33;22.60;55.20
74617;DHT22;63123;50.906;4.198;2022-09-01T13:00:21;22.60;55.60
74617;DHT22;63123;50.906;4.198;2022-09-01T13:02:48;22.60;55.50
74617;DHT22;63123;50.906;4.198;2022-09-01T13:05:33;22.60;55.40
74617;DHT22;63123;50.906;4.198;2022-09-01T13:08:04;22.60;55.40
74617;DHT22;63123;50.906;4.198;2022-09-01T13:10:42;22.60;55.10
74617;DHT22;63123;50.906;4.198;2022-09-01T13:13:10;22.60;55.50
74617;DHT22;63123;50.906;4.198;2022-09-01T13:15:38;22.60;55.20
74617;DHT22;63123;50.906;4.198;2022-09-01T13:18:04;22.60;55.50
74617;DHT22;63123;50.906;4.198;2022-09-01T13:20:30;22.50;55.80
74617;DHT22;63123;50.906;4.198;2022-09-01T13:22:55;22.60;55.70
74617;DHT22;63123;50.906;4.198;2022-09-01T13:25:22;22.60;55.70
74617;DHT22;63123;50.906;4.198;2022-09-01T13:27:49;22.60;55.70
74617;DHT22;63123;50.906;4.198;2022-09-01T13:30:18;22.60;55.80
74617;DHT22;63123;50.906;4.198;2022-09-01T13:32:44;22.60;55.20
74617;DHT22;63123;50.906;4.198;2022-09-01T13:35:12;22.60;55.20
74617;DHT22;63123;50.906;4.198;2022-09-01T13:37:39;22.60;55.50
74617;DHT22;63123;50.906;4.198;2022-09-01T13:40:06;22.60;55.40
74617;DHT22;63123;50.906;4.198;2022-09-01T13:42:34;22.60;55.40
74617;DHT22;63123;50.906;4.198;2022-09-01T13:45:00;22.60;55.70
74617;DHT22;63123;50.906;4.198;2022-09-01T13:47:26;22.60;55.70
74617;DHT22;63123;50.906;4.198;2022-09-01T13:49:52;22.60;55.30
74617;DHT22;63123;50.906;4.198;2022-09-01T13:52:18;22.60;55.70
74617;DHT22;63123;50.906;4.198;2022-09-01T13:54:44;22.60;55.70
74617;DHT22;63123;50.906;4.198;2022-09-01T13:57:10;22.60;55.40
74617;DHT22;63123;50.906;4.198;2022-09-01T13:59:36;22.50;55.40
74617;DHT22;63123;50.906;4.198;2022-09-01T14:02:03;22.60;55.40
74617;DHT22;63123;50.906;4.198;2022-09-01T14:04:29;22.60;55.50
74617;DHT22;63123;50.906;4.198;2022-09-01T14:06:55;22.60;55.40
74617;DHT22;63123;50.906;4.198;2022-09-01T14:09:21;22.60;55.40
74617;DHT22;63123;50.906;4.198;2022-09-01T14:11:47;22.60;55.20
74617;DHT22;63123;50.906;4.198;2022-09-01T14:14:12;22.60;55.10
74617;DHT22;63123;50.906;4.198;2022-09-01T14:16:38;22.60;55.90
74617;DHT22;63123;50.906;4.198;2022-09-01T14:19:04;22.60;55.40
74617;DHT22;63123;50.906;4.198;2022-09-01T14:21:30;22.60;55.00
74617;DHT22;63123;50.906;4.198;2022-09-01T14:23:56;22.60;54.90
74617;DHT22;63123;50.906;4.198;2022-09-01T14:26:22;22.60;55.20
74617;DHT22;63123;50.906;4.198;2022-09-01T14:28:48;22.60;55.20
74617;DHT22;63123;50.906;4.198;2022-09-01T14:31:16;22.60;55.20
74617;DHT22;63123;50.906;4.198;2022-09-01T14:33:43;22.60;55.30
74617;DHT22;63123;50.906;4.198;2022-09-01T14:36:17;22.60;55.40
74617;DHT22;63123;50.906;4.198;2022-09-01T14:38:44;22.60;55.30
74617;DHT22;63123;50.906;4.198;2022-09-01T14:41:12;22.60;55.50
74617;DHT22;63123;50.906;4.198;2022-09-01T14:43:38;22.60;55.30
74617;DHT22;63123;50.906;4.198;2022-09-01T14:46:08;22.60;55.40
74617;DHT22;63123;50.906;4.198;2022-09-01T14:48:36;22.60;55.50
74617;DHT22;63123;50.906;4.198;2022-09-01T14:51:03;22.60;54.90
74617;DHT22;63123;50.906;4.198;2022-09-01T14:53:29;22.60;55.10
74617;DHT22;63123;50.906;4.198;2022-09-01T14:55:56;22.60;55.30
74617;DHT22;63123;50.906;4.198;2022-09-01T14:58:23;22.60;55.10
74617;DHT22;63123;50.906;4.198;2022-09-01T15:00:49;22.60;55.00
74617;DHT22;63123;50.906;4.198;2022-09-01T15:03:15;22.60;55.30
74617;DHT22;63123;50.906;4.198;2022-09-01T15:05:40;22.60;54.70
74617;DHT22;63123;50.906;4.198;2022-09-01T15:08:07;22.60;54.80
74617;DHT22;63123;50.906;4.198;2022-09-01T15:10:33;22.60;55.20
74617;DHT22;63123;50.906;4.198;2022-09-01T15:13:00;22.60;54.80
74617;DHT22;63123;50.906;4.198;2022-09-01T15:15:27;22.60;55.10
74617;DHT22;63123;50.906;4.198;2022-09-01T15:17:54;22.60;55.80
74617;DHT22;63123;50.906;4.198;2022-09-01T15:20:21;22.60;54.90
74617;DHT22;63123;50.906;4.198;2022-09-01T15:23:06;22.70;54.90
74617;DHT22;63123;50.906;4.198;2022-09-01T15:25:32;22.60;54.90
74617;DHT22;63123;50.906;4.198;2022-09-01T15:27:58;22.60;54.50
74617;DHT22;63123;50.906;4.198;2022-09-01T15:30:24;22.60;54.70
74617;DHT22;63123;50.906;4.198;2022-09-01T15:32:51;22.60;54.90
74617;DHT22;63123;50.906;4.198;2022-09-01T15:35:18;22.60;54.80
74617;DHT22;63123;50.906;4.198;2022-09-01T15:37:47;22.60;54.90
74617;DHT22;63123;50.906;4.198;2022-09-01T15:40:14;22.70;54.50
74617;DHT22;63123;50.906;4.198;2022-09-01T15:42:39;22.60;55.40
74617;DHT22;63123;50.906;4.198;2022-09-01T15:45:12;22.60;55.10
74617;DHT22;63123;50.906;4.198;2022-09-01T15:47:39;22.60;55.00
74617;DHT22;63123;50.906;4.198;2022-09-01T15:50:08;22.60;54.80
74617;DHT22;63123;50.906;4.198;2022-09-01T15:52:52;22.60;55.00
74617;DHT22;63123;50.906;4.198;2022-09-01T15:55:23;22.60;54.80
74617;DHT22;63123;50.906;4.198;2022-09-01T15:57:49;22.60;54.90
74617;DHT22;63123;50.906;4.198;2022-09-01T16:00:18;22.70;54.90
74617;DHT22;63123;50.906;4.198;2022-09-01T16:02:43;22.60;54.40
74617;DHT22;63123;50.906;4.198;2022-09-01T16:05:10;22.60;54.60
74617;DHT22;63123;50.906;4.198;2022-09-01T16:07:36;22.60;54.90
74617;DHT22;63123;50.906;4.198;2022-09-01T16:10:02;22.60;54.80
74617;DHT22;63123;50.906;4.198;2022-09-01T16:12:28;22.60;54.90
74617;DHT22;63123;50.906;4.198;2022-09-01T16:14:55;22.60;54.80
74617;DHT22;63123;50.906;4.198;2022-09-01T16:17:27;22.60;55.00
74617;DHT22;63123;50.906;4.198;2022-09-01T16:20:08;22.60;54.70
74617;DHT22;63123;50.906;4.198;2022-09-01T16:22:38;22.60;54.50
74617;DHT22;63123;50.906;4.198;2022-09-01T16:25:14;22.60;54.20
74617;DHT22;63123;50.906;4.198;2022-09-01T16:27:43;22.60;54.40
74617;DHT22;63123;50.906;4.198;2022-09-01T16:30:12;22.60;54.50
74617;DHT22;63123;50.906;4.198;2022-09-01T16:32:43;22.60;54.90
74617;DHT22;63123;50.906;4.198;2022-09-01T16:35:09;22.60;54.40
74617;DHT22;63123;50.906;4.198;2022-09-01T16:38:07;22.60;54.40
74617;DHT22;63123;50.906;4.198;2022-09-01T16:40:58;22.60;54.60
74617;DHT22;63123;50.906;4.198;2022-09-01T16:43:56;22.60;54.60
74617;DHT22;63123;50.906;4.198;2022-09-01T16:46:40;22.50;54.80